createdAt,value
2018-11-04T00:00:31.724Z,0
2018-11-04T00:03:31.708Z,0
2018-11-04T00:06:31.288Z,0
2018-11-04T00:09:31.430Z,0
2018-11-04T00:12:31.102Z,0
2018-11-04T00:15:31.961Z,0
2018-11-04T00:18:31.405Z,0
2018-11-04T00:21:30.934Z,0
2018-11-04T00:24:31.591Z,0
2018-11-04T00:27:31.126Z,0
2018-11-04T00:30:31.805Z,0
2018-11-04T00:33:31.210Z,0
2018-11-04T00:36:31.577Z,0
2018-11-04T00:39:31.280Z,0
2018-11-04T00:42:31.641Z,0
2018-11-04T00:45:31.513Z,0
2018-11-04T00:48:31.550Z,0
2018-11-04T00:51:31.454Z,0
2018-11-04T00:54:30.975Z,0
2018-11-04T00:57:31.661Z,0
2018-11-04T01:00:31.139Z,0
2018-11-04T01:03:32.007Z,0
2018-11-04T01:06:31.815Z,0
2018-11-04T01:09:31.858Z,0
2018-11-04T01:12:31.674Z,0
2018-11-04T01:15:31.298Z,0
2018-11-04T01:18:30.983Z,0
2018-11-04T01:21:31.922Z,0
2018-11-04T01:24:31.737Z,0
2018-11-04T01:27:31.458Z,0
2018-11-04T01:30:31.312Z,0
2018-11-04T01:33:30.983Z,0
2018-11-04T01:36:31.673Z,0
2018-11-04T01:39:31.341Z,0
2018-11-04T01:42:31.169Z,0
2018-11-04T01:45:31.882Z,0
2018-11-04T01:48:31.350Z,0
2018-11-04T01:51:31.193Z,0
2018-11-04T01:54:32.582Z,0
2018-11-04T01:57:31.183Z,0
2018-11-04T02:00:31.706Z,0
2018-11-04T02:03:31.359Z,0
2018-11-04T02:06:31.039Z,0
2018-11-04T02:09:36.636Z,0
2018-11-04T02:12:31.022Z,0
2018-11-04T02:15:31.544Z,0
2018-11-04T02:18:31.359Z,0
2018-11-04T02:21:31.026Z,0
2018-11-04T02:24:31.566Z,0
2018-11-04T02:27:31.377Z,0
2018-11-04T02:30:30.899Z,0
2018-11-04T02:33:31.371Z,0
2018-11-04T02:36:31.038Z,0
2018-11-04T02:39:31.378Z,0
2018-11-04T02:42:30.874Z,0
2018-11-04T02:45:31.560Z,0
2018-11-04T02:48:31.075Z,0
2018-11-04T02:51:31.573Z,0
2018-11-04T02:54:31.053Z,0
2018-11-04T02:57:31.596Z,0
2018-11-04T03:00:31.250Z,0
2018-11-04T03:03:31.742Z,0
2018-11-04T03:06:31.230Z,0
2018-11-04T03:09:31.730Z,0
2018-11-04T03:12:31.354Z,0
2018-11-04T03:15:30.721Z,0
2018-11-04T03:18:31.512Z,0
2018-11-04T03:21:31.261Z,0
2018-11-04T03:24:31.988Z,0
2018-11-04T03:27:31.424Z,0
2018-11-04T03:30:31.245Z,0
2018-11-04T03:33:31.786Z,0
2018-11-04T03:36:31.423Z,0
2018-11-04T03:39:31.093Z,0
2018-11-04T03:42:31.560Z,0
2018-11-04T03:45:31.060Z,0
2018-11-04T03:48:31.931Z,0
2018-11-04T03:51:31.462Z,0
2018-11-04T03:54:31.213Z,0
2018-11-04T03:57:32.056Z,0
2018-11-04T04:00:31.605Z,0
2018-11-04T04:03:31.258Z,0
2018-11-04T04:06:31.960Z,0
2018-11-04T04:09:31.635Z,0
2018-11-04T04:12:31.394Z,0
2018-11-04T04:15:31.057Z,0
2018-11-04T04:18:31.785Z,0
2018-11-04T04:21:31.448Z,0
2018-11-04T04:24:31.276Z,0
2018-11-04T04:27:32.005Z,0
2018-11-04T04:30:31.577Z,0
2018-11-04T04:33:31.594Z,0
2018-11-04T04:36:31.102Z,0
2018-11-04T04:39:31.827Z,0
2018-11-04T04:42:31.658Z,0
2018-11-04T04:45:31.321Z,0
2018-11-04T04:48:30.945Z,0
2018-11-04T04:51:31.450Z,0
2018-11-04T04:54:31.127Z,0
2018-11-04T04:57:31.839Z,0
2018-11-04T05:00:31.660Z,0
2018-11-04T05:03:31.451Z,0
2018-11-04T05:06:31.303Z,0
2018-11-04T05:09:30.979Z,0
2018-11-04T05:12:31.672Z,0
2018-11-04T05:15:31.358Z,0
2018-11-04T05:18:31.167Z,0
2018-11-04T05:21:32.151Z,0
2018-11-04T05:24:31.657Z,0
2018-11-04T05:27:32.174Z,0
2018-11-04T05:30:31.699Z,0
2018-11-04T05:33:31.381Z,0
2018-11-04T05:36:30.843Z,0
2018-11-04T05:39:31.853Z,0
2018-11-04T05:42:31.861Z,0
2018-11-04T05:45:31.855Z,0
2018-11-04T05:48:31.742Z,0
2018-11-04T05:51:31.553Z,0
2018-11-04T05:54:31.305Z,0
2018-11-04T05:57:31.164Z,0
2018-11-04T06:00:31.354Z,1
2018-11-04T06:03:31.212Z,2
2018-11-04T06:06:31.074Z,3
2018-11-04T06:09:31.888Z,5
2018-11-04T06:12:31.680Z,7
2018-11-04T06:15:31.354Z,10
2018-11-04T06:18:31.197Z,16
2018-11-04T06:21:31.907Z,22
2018-11-04T06:24:31.985Z,30
2018-11-04T06:27:31.672Z,38
2018-11-04T06:30:31.721Z,52
2018-11-04T06:33:31.031Z,66
2018-11-04T06:36:36.611Z,83
2018-11-04T06:39:31.060Z,100
2018-11-04T06:42:31.847Z,117
2018-11-04T06:45:32.575Z,119
2018-11-04T06:48:31.508Z,131
2018-11-04T06:51:31.067Z,163
2018-11-04T06:54:31.784Z,218
2018-11-04T06:57:31.582Z,219
2018-11-04T07:00:36.300Z,239
2018-11-04T07:03:31.910Z,263
2018-11-04T07:06:31.749Z,295
2018-11-04T07:09:31.444Z,328
2018-11-04T07:12:30.769Z,364
2018-11-04T07:15:31.638Z,410
2018-11-04T07:18:31.385Z,485
2018-11-04T07:21:31.055Z,529
2018-11-04T07:24:31.764Z,514
2018-11-04T07:27:31.610Z,597
2018-11-04T07:30:31.629Z,638
2018-11-04T07:33:31.567Z,651
2018-11-04T07:36:31.580Z,707
2018-11-04T07:39:31.605Z,769
2018-11-04T07:42:31.619Z,858
2018-11-04T07:45:31.407Z,898
2018-11-04T07:48:31.380Z,878
2018-11-04T07:51:31.296Z,962
2018-11-04T07:54:31.275Z,966
2018-11-04T07:57:31.995Z,982
2018-11-04T08:00:31.805Z,1088
2018-11-04T08:03:31.507Z,1158
2018-11-04T08:06:31.589Z,1118
2018-11-04T08:09:31.597Z,1170
2018-11-04T08:12:31.449Z,1190
2018-11-04T08:15:35.956Z,1246
2018-11-04T08:18:32.032Z,1298
2018-11-04T08:21:32.122Z,1206
2018-11-04T08:24:31.935Z,1284
2018-11-04T08:27:31.972Z,1323
2018-11-04T08:30:31.644Z,1338
2018-11-04T08:33:31.520Z,1309
2018-11-04T08:36:31.334Z,1296
2018-11-04T08:39:31.243Z,1302
2018-11-04T08:42:32.124Z,1344
2018-11-04T08:45:31.839Z,1372
2018-11-04T08:48:31.524Z,1422
2018-11-04T08:51:31.503Z,1525
2018-11-04T08:54:31.132Z,1590
2018-11-04T08:57:31.970Z,1690
2018-11-04T09:00:31.996Z,1612
2018-11-04T09:03:31.696Z,1891
2018-11-04T09:06:31.937Z,1942
2018-11-04T09:09:33.300Z,2117
2018-11-04T09:12:31.445Z,2202
2018-11-04T09:15:31.137Z,2335
2018-11-04T09:18:32.178Z,2351
2018-11-04T09:21:32.061Z,2335
2018-11-04T09:24:31.713Z,2322
2018-11-04T09:27:31.397Z,2368
2018-11-04T09:30:31.137Z,2826
2018-11-04T09:33:31.849Z,2792
2018-11-04T09:36:32.356Z,2774
2018-11-04T09:39:31.560Z,2607
2018-11-04T09:42:31.553Z,2583
2018-11-04T09:45:31.417Z,2835
2018-11-04T09:48:31.241Z,2663
2018-11-04T09:51:31.227Z,2691
2018-11-04T09:54:30.879Z,2691
2018-11-04T09:57:31.948Z,2338
2018-11-04T10:00:31.571Z,2328
2018-11-04T10:03:31.723Z,2255
2018-11-04T10:06:31.577Z,2658
2018-11-04T10:09:31.562Z,2719
2018-11-04T10:12:31.254Z,2717
2018-11-04T10:15:32.360Z,2706
2018-11-04T10:18:31.242Z,2699
2018-11-04T10:21:31.097Z,2610
2018-11-04T10:24:33.125Z,2813
2018-11-04T10:27:32.453Z,2932
2018-11-04T10:30:31.544Z,3168
2018-11-04T10:33:31.445Z,3169
2018-11-04T10:36:31.464Z,3062
2018-11-04T10:39:31.272Z,2927
2018-11-04T10:42:31.453Z,3076
2018-11-04T10:45:31.260Z,2990
2018-11-04T10:48:31.108Z,3538
2018-11-04T10:51:31.729Z,2768
2018-11-04T10:54:31.669Z,3562
2018-11-04T10:57:31.465Z,3491
2018-11-04T11:01:36.089Z,3031
2018-11-04T11:03:31.997Z,3005
2018-11-04T11:06:32.001Z,3320
2018-11-04T11:09:31.777Z,3589
2018-11-04T11:12:31.940Z,3725
2018-11-04T11:15:31.983Z,3773
2018-11-04T11:18:42.013Z,3818
2018-11-04T11:21:31.782Z,3194
2018-11-04T11:24:31.629Z,3152
2018-11-04T11:27:31.976Z,3134
2018-11-04T11:30:31.981Z,3488
2018-11-04T11:33:31.657Z,3686
2018-11-04T11:36:31.654Z,4127
2018-11-04T11:39:31.639Z,3923
2018-11-04T11:42:31.940Z,4114
2018-11-04T11:45:31.812Z,4222
2018-11-04T11:48:32.008Z,4236
2018-11-04T11:51:32.074Z,4081
2018-11-04T11:54:31.787Z,3624
2018-11-04T11:57:31.687Z,3822
2018-11-04T12:00:31.152Z,4131
2018-11-04T12:03:31.996Z,3908
2018-11-04T12:06:31.804Z,3364
2018-11-04T12:09:31.524Z,2998
2018-11-04T12:12:31.773Z,3719
2018-11-04T12:15:31.518Z,3838
2018-11-04T12:18:31.506Z,3900
2018-11-04T12:21:31.031Z,3472
2018-11-04T12:24:31.857Z,3781
2018-11-04T12:27:31.796Z,3789
2018-11-04T12:30:31.517Z,3912
2018-11-04T12:33:31.544Z,3692
2018-11-04T12:36:31.514Z,3383
2018-11-04T12:39:31.377Z,3346
2018-11-04T12:42:31.016Z,3078
2018-11-04T12:45:32.039Z,3073
2018-11-04T12:48:32.160Z,3093
2018-11-04T12:51:31.703Z,3272
2018-11-04T12:54:31.694Z,3088
2018-11-04T12:57:31.534Z,3062
2018-11-04T13:00:31.710Z,2851
2018-11-04T13:03:31.403Z,2786
2018-11-04T13:06:31.362Z,2688
2018-11-04T13:09:32.068Z,2579
2018-11-04T13:12:31.888Z,2497
2018-11-04T13:15:31.889Z,2138
2018-11-04T13:18:31.563Z,1982
2018-11-04T13:21:31.581Z,2256
2018-11-04T13:24:31.250Z,2384
2018-11-04T13:27:30.922Z,2172
2018-11-04T13:30:31.905Z,1868
2018-11-04T13:33:31.589Z,1802
2018-11-04T13:36:31.569Z,1702
2018-11-04T13:39:31.224Z,1762
2018-11-04T13:42:30.925Z,1886
2018-11-04T13:45:32.113Z,1922
2018-11-04T13:48:31.940Z,1875
2018-11-04T13:51:31.761Z,1769
2018-11-04T13:54:31.261Z,1701
2018-11-04T13:57:30.938Z,1498
2018-11-04T14:00:32.300Z,1406
2018-11-04T14:03:36.006Z,1377
2018-11-04T14:06:31.761Z,1262
2018-11-04T14:09:31.607Z,1252
2018-11-04T14:12:31.590Z,1209
2018-11-04T14:15:32.328Z,1177
2018-11-04T14:18:31.090Z,1195
2018-11-04T14:21:32.164Z,1115
2018-11-04T14:24:32.220Z,1054
2018-11-04T14:27:31.934Z,976
2018-11-04T14:30:32.983Z,942
2018-11-04T14:33:31.628Z,941
2018-11-04T14:36:31.462Z,916
2018-11-04T14:39:31.132Z,869
2018-11-04T14:42:30.971Z,895
2018-11-04T14:45:31.921Z,841
2018-11-04T14:48:31.949Z,853
2018-11-04T14:51:31.968Z,927
2018-11-04T14:54:31.977Z,1012
2018-11-04T14:57:31.459Z,989
2018-11-04T15:00:31.120Z,998
2018-11-04T15:03:31.977Z,992
2018-11-04T15:06:36.676Z,989
2018-11-04T15:09:31.135Z,968
2018-11-04T15:12:31.158Z,860
2018-11-04T15:15:31.149Z,641
2018-11-04T15:18:31.191Z,518
2018-11-04T15:21:31.478Z,508
2018-11-04T15:24:30.995Z,450
2018-11-04T15:27:31.148Z,503
2018-11-04T15:30:30.875Z,412
2018-11-04T15:33:32.132Z,369
2018-11-04T15:36:31.977Z,302
2018-11-04T15:39:32.306Z,232
2018-11-04T15:42:35.865Z,194
2018-11-04T15:45:31.470Z,160
2018-11-04T15:48:31.681Z,140
2018-11-04T15:51:31.956Z,117
2018-11-04T15:54:32.234Z,80
2018-11-04T15:57:32.527Z,66
2018-11-04T16:00:31.684Z,53
2018-11-04T16:03:36.351Z,43
2018-11-04T16:06:32.391Z,32
2018-11-04T16:09:31.707Z,22
2018-11-04T16:12:37.739Z,15
2018-11-04T16:15:31.692Z,10
2018-11-04T16:18:31.552Z,6
2018-11-04T16:21:32.036Z,3
2018-11-04T16:24:31.806Z,2
2018-11-04T16:27:31.304Z,1
2018-11-04T16:30:31.054Z,1
2018-11-04T16:33:31.336Z,0
2018-11-04T16:36:31.229Z,0
2018-11-04T16:39:31.202Z,0
2018-11-04T16:42:31.199Z,0
2018-11-04T16:45:31.193Z,0
2018-11-04T16:48:30.934Z,0
2018-11-04T16:51:30.800Z,0
2018-11-04T16:54:32.075Z,0
2018-11-04T16:57:32.446Z,0
2018-11-04T17:00:31.505Z,0
2018-11-04T17:03:31.366Z,0
2018-11-04T17:06:31.516Z,0
2018-11-04T17:09:31.552Z,0
2018-11-04T17:12:31.096Z,0
2018-11-04T17:15:30.957Z,0
2018-11-04T17:18:31.233Z,0
2018-11-04T17:21:30.963Z,0
2018-11-04T17:24:36.177Z,0
2018-11-04T17:27:32.117Z,0
2018-11-04T17:30:32.035Z,0
2018-11-04T17:33:32.125Z,0
2018-11-04T17:36:32.186Z,0
2018-11-04T17:39:31.026Z,0
2018-11-04T17:42:31.236Z,0
2018-11-04T17:45:31.633Z,0
2018-11-04T17:48:31.875Z,0
2018-11-04T17:51:31.556Z,0
2018-11-04T17:54:31.398Z,0
2018-11-04T17:57:31.420Z,0
2018-11-04T18:00:31.438Z,0
2018-11-04T18:03:31.268Z,0
2018-11-04T18:06:31.356Z,0
2018-11-04T18:09:31.276Z,0
2018-11-04T18:12:31.035Z,0
2018-11-04T18:15:30.998Z,0
2018-11-04T18:18:31.287Z,0
2018-11-04T18:21:31.322Z,0
2018-11-04T18:24:31.142Z,0
2018-11-04T18:27:31.290Z,0
2018-11-04T18:30:31.163Z,0
2018-11-04T18:33:31.304Z,0
2018-11-04T18:36:31.477Z,0
2018-11-04T18:39:31.301Z,0
2018-11-04T18:42:31.441Z,0
2018-11-04T18:45:31.059Z,0
2018-11-04T18:48:31.062Z,0
2018-11-04T18:51:31.156Z,0
2018-11-04T18:54:31.190Z,0
2018-11-04T18:57:31.200Z,0
2018-11-04T19:00:31.206Z,0
2018-11-04T19:03:31.040Z,0
2018-11-04T19:06:32.014Z,0
2018-11-04T19:09:32.199Z,0
2018-11-04T19:12:37.696Z,0
2018-11-04T19:15:31.437Z,0
2018-11-04T19:18:32.156Z,0
2018-11-04T19:21:32.526Z,0
2018-11-04T19:24:32.188Z,0
2018-11-04T19:27:31.319Z,0
2018-11-04T19:30:32.134Z,0
2018-11-04T19:33:42.025Z,0
2018-11-04T19:36:32.381Z,0
2018-11-04T19:39:31.376Z,0
2018-11-04T19:42:32.625Z,0
2018-11-04T19:45:32.377Z,0
2018-11-04T19:48:32.616Z,0
2018-11-04T19:51:32.213Z,0
2018-11-04T19:54:31.721Z,0
2018-11-04T19:57:36.537Z,0
2018-11-04T20:00:31.873Z,0
2018-11-04T20:03:32.502Z,0
2018-11-04T20:06:31.515Z,0
2018-11-04T20:09:31.892Z,0
2018-11-04T20:14:40.655Z,0
2018-11-04T20:15:32.091Z,0
2018-11-04T20:20:44.100Z,0
2018-11-04T20:21:32.532Z,0
2018-11-04T20:26:42.639Z,0
2018-11-04T20:27:31.552Z,0
2018-11-04T20:30:32.114Z,0
2018-11-04T20:33:32.587Z,0
2018-11-04T20:36:32.208Z,0
2018-11-04T20:41:43.896Z,0
2018-11-04T20:42:32.589Z,0
2018-11-04T20:45:31.408Z,0
2018-11-04T20:50:41.171Z,0
2018-11-04T20:51:32.003Z,0
2018-11-04T20:54:31.872Z,0
2018-11-04T20:57:51.151Z,0
2018-11-04T21:00:32.247Z,0
2018-11-04T21:03:30.912Z,0
2018-11-04T21:06:31.308Z,0
2018-11-04T21:09:31.553Z,0
2018-11-04T21:12:31.172Z,0
2018-11-04T21:15:31.919Z,0
2018-11-04T21:18:31.943Z,0
2018-11-04T21:21:31.764Z,0
2018-11-04T21:24:31.294Z,0
2018-11-04T21:27:31.445Z,0
2018-11-04T21:30:31.424Z,0
2018-11-04T21:33:31.189Z,0
2018-11-04T21:36:37.911Z,0
2018-11-04T21:39:32.414Z,0
2018-11-04T21:42:31.847Z,0
2018-11-04T21:45:32.628Z,0
2018-11-04T21:48:32.755Z,0
2018-11-04T21:51:32.237Z,0
2018-11-04T21:54:31.644Z,0
2018-11-04T21:57:32.381Z,0
2018-11-04T22:00:31.482Z,0
2018-11-04T22:03:32.939Z,0
2018-11-04T22:06:32.802Z,0
2018-11-04T22:09:31.824Z,0
2018-11-04T22:12:32.345Z,0
2018-11-04T22:15:32.145Z,0
2018-11-04T22:18:33.117Z,0
2018-11-04T22:21:36.895Z,0
2018-11-04T22:24:31.976Z,0
2018-11-04T22:27:33.034Z,0
2018-11-04T22:30:32.409Z,0
2018-11-04T22:33:31.462Z,0
2018-11-04T22:36:32.613Z,0
2018-11-04T22:39:32.514Z,0
2018-11-04T22:42:32.155Z,0
2018-11-04T22:45:32.282Z,0
2018-11-04T22:48:31.626Z,0
2018-11-04T22:51:31.826Z,0
2018-11-04T22:54:33.310Z,0
2018-11-04T22:57:31.342Z,0
2018-11-04T23:01:37.482Z,0
2018-11-04T23:03:32.275Z,0
2018-11-04T23:06:33.882Z,0
2018-11-04T23:09:32.649Z,0
2018-11-04T23:12:32.441Z,0
2018-11-04T23:15:31.676Z,0
2018-11-04T23:18:32.330Z,0
2018-11-04T23:21:36.863Z,0
2018-11-04T23:24:32.672Z,0
2018-11-04T23:27:37.006Z,0
2018-11-04T23:30:32.717Z,0
2018-11-04T23:33:32.528Z,0
2018-11-04T23:36:32.409Z,0
2018-11-04T23:39:32.087Z,0
2018-11-04T23:42:33.263Z,0
2018-11-04T23:45:31.453Z,0
2018-11-04T23:48:32.775Z,0
2018-11-04T23:51:32.639Z,0
2018-11-04T23:54:31.927Z,0
2018-11-04T23:57:32.278Z,0
